Time;durP1;ratioP1;P1;durP2;ratioP2;P2;SDS_P1;SDS_P2;PMS_P1;PMS_P2;Temp;Humidity;BMP_temperature;BMP_pressure;BME280_temperature;BME280_humidity;BME280_pressure;Samples;Min_cycle;Max_cycle;Signal;HPM_P1;HPM_P2
2021/12/27 00:01:07;;;;;;;4.53;2.22;;;;;;;-11.82;65.17;98673.28;4845455;29;20044;-66
2021/12/27 00:03:33;;;;;;;4.82;2.67;;;;;;;-11.74;64.86;98663.84;4845414;29;20143;-65
2021/12/27 00:05:58;;;;;;;7.30;3.80;;;;;;;-11.87;65.49;98667.28;4845624;29;20040;-69
2021/12/27 00:08:23;;;;;;;6.32;3.30;;;;;;;-11.93;64.87;98673.25;4846037;29;20060;-70
2021/12/27 00:10:48;;;;;;;5.95;3.58;;;;;;;-12.10;65.46;98676.66;4863489;29;20515;-70
2021/12/27 00:13:12;;;;;;;2.75;2.20;;;;;;;-11.97;65.32;98675.84;4862571;29;20681;-71
2021/12/27 00:15:39;;;;;;;4.65;2.33;;;;;;;-12.00;65.29;98686.94;4844229;29;20131;-71
2021/12/27 00:18:04;;;;;;;5.85;3.20;;;;;;;-12.06;65.01;98681.78;4860371;29;20054;-69
2021/12/27 00:20:29;;;;;;;4.88;3.63;;;;;;;-11.96;65.73;98688.66;4860292;29;20040;-65
2021/12/27 00:22:54;;;;;;;7.35;3.80;;;;;;;-11.96;65.50;98691.22;4843181;29;20582;-65
2021/12/27 00:25:20;;;;;;;6.30;3.45;;;;;;;-11.93;64.91;98687.81;4860058;29;20040;-67
2021/12/27 00:27:47;;;;;;;6.22;2.58;;;;;;;-11.82;65.40;98686.13;4860234;29;20539;-69
2021/12/27 00:30:15;;;;;;;5.22;3.25;;;;;;;-11.83;65.77;98692.13;4860261;29;20056;-65
2021/12/27 00:32:43;;;;;;;5.65;3.60;;;;;;;-11.91;64.70;98693.81;4843204;29;20105;-65
2021/12/27 00:35:08;;;;;;;5.75;3.05;;;;;;;-11.96;65.29;98693.78;4859895;29;20053;-66
2021/12/27 00:37:37;;;;;;;8.60;4.15;;;;;;;-12.08;65.41;98695.50;4860016;29;20053;-65
2021/12/27 00:40:05;;;;;;;3.13;2.03;;;;;;;-11.93;65.87;98698.09;4843119;29;20119;-66
2021/12/27 00:42:31;;;;;;;5.32;3.33;;;;;;;-12.02;65.42;98711.78;4861989;29;20052;-65
2021/12/27 00:44:59;;;;;;;3.33;1.88;;;;;;;-11.87;65.48;98708.41;4863549;29;20074;-67
2021/12/27 00:47:26;;;;;;;4.40;2.55;;;;;;;-11.79;65.50;98709.25;4863489;29;20479;-67
2021/12/27 00:49:51;;;;;;;7.60;4.07;;;;;;;-11.76;65.45;98706.72;4863546;29;20052;-67
2021/12/27 00:52:15;;;;;;;4.57;2.55;;;;;;;-11.69;64.72;98707.53;4863743;29;20052;-65
2021/12/27 00:54:40;;;;;;;8.73;3.78;;;;;;;-11.78;64.61;98703.28;4863500;29;20048;-68
2021/12/27 00:57:05;;;;;;;5.28;2.60;;;;;;;-11.69;65.09;98715.25;4831133;29;20643;-70
2021/12/27 00:59:30;;;;;;;4.72;2.85;;;;;;;-11.75;64.98;98711.00;4863127;29;20955;-70
2021/12/27 01:01:56;;;;;;;6.03;2.63;;;;;;;-11.73;65.19;98728.09;4831281;29;20055;-69
2021/12/27 01:04:21;;;;;;;4.95;3.00;;;;;;;-11.74;65.27;98733.25;4846698;29;20053;-70
2021/12/27 01:06:49;;;;;;;7.28;3.50;;;;;;;-11.92;65.39;98725.50;4831176;29;20052;-71
2021/12/27 01:09:25;;;;;;;7.60;3.65;;;;;;;-11.93;65.69;98731.50;4863322;29;20044;-70
2021/12/27 01:12:27;;;;;;;4.65;2.63;;;;;;;-11.83;66.03;98734.09;4846320;29;20048;-67
2021/12/27 01:15:05;;;;;;;4.53;2.63;;;;;;;-11.75;65.72;98734.13;4862804;29;20059;-68
2021/12/27 01:17:25;;;;;;;7.30;3.95;;;;;;;-11.78;66.00;98731.53;4862532;29;20055;-66
2021/12/27 01:19:50;;;;;;;6.07;3.78;;;;;;;-11.69;65.11;98743.53;4862942;29;20044;-67
2021/12/27 01:22:17;;;;;;;7.95;4.35;;;;;;;-11.84;65.24;98734.94;4862907;29;20081;-65
2021/12/27 01:24:43;;;;;;;7.10;3.97;;;;;;;-11.95;65.74;98738.34;4863568;29;20052;-73
2021/12/27 01:27:08;;;;;;;6.35;3.97;;;;;;;-11.79;66.03;98743.53;4847022;29;20156;-74
2021/12/27 01:29:33;;;;;;;8.82;4.45;;;;;;;-11.82;66.71;98738.38;4863854;29;20049;-72
2021/12/27 01:31:58;;;;;;;5.55;3.72;;;;;;;-11.70;66.16;98746.94;4864074;29;20044;-69
2021/12/27 01:34:26;;;;;;;7.10;4.00;;;;;;;-11.60;66.49;98749.53;4831216;29;20137;-67
2021/12/27 01:36:53;;;;;;;5.32;4.03;;;;;;;-11.65;66.04;98750.41;4863824;29;20052;-69
2021/12/27 01:39:17;;;;;;;5.72;3.45;;;;;;;-11.47;65.90;98753.00;4863566;29;20083;-64
2021/12/27 01:41:42;;;;;;;5.28;2.90;;;;;;;-11.49;65.59;98746.97;4846277;29;20084;-65
2021/12/27 01:44:08;;;;;;;6.72;3.92;;;;;;;-11.53;65.97;98746.13;4862980;29;20048;-69
2021/12/27 01:46:33;;;;;;;4.97;2.95;;;;;;;-11.44;65.66;98753.88;4863106;29;20051;-66
2021/12/27 01:49:00;;;;;;;6.75;3.33;;;;;;;-11.46;65.74;98758.13;4863728;29;20060;-66
2021/12/27 01:51:27;;;;;;;3.80;2.83;;;;;;;-11.53;66.03;98756.44;4862962;29;20052;-65
2021/12/27 01:53:52;;;;;;;6.32;3.90;;;;;;;-11.68;65.82;98756.38;4843055;29;20053;-64
2021/12/27 01:56:20;;;;;;;6.03;2.75;;;;;;;-11.59;65.92;98766.69;4827634;29;20044;-63
2021/12/27 01:58:45;;;;;;;3.72;2.85;;;;;;;-11.71;66.83;98769.22;4843794;29;20072;-65
2021/12/27 02:01:12;;;;;;;6.35;4.15;;;;;;;-11.64;66.29;98768.41;4845518;29;20049;-62
2021/12/27 02:03:38;;;;;;;6.70;4.20;;;;;;;-11.58;66.59;98772.69;4830738;29;20531;-65
2021/12/27 02:06:05;;;;;;;9.63;4.00;;;;;;;-11.59;65.70;98787.25;4848815;29;20405;-67
2021/12/27 02:08:30;;;;;;;2.90;2.05;;;;;;;-11.47;65.95;98777.00;4830555;29;20055;-66
2021/12/27 02:10:55;;;;;;;5.65;3.33;;;;;;;-11.45;65.93;98782.16;4845209;29;20048;-65
2021/12/27 02:13:20;;;;;;;4.18;2.67;;;;;;;-11.55;66.13;98778.69;4862554;29;20183;-64
2021/12/27 02:15:45;;;;;;;7.43;4.22;;;;;;;-11.63;65.88;98790.69;4862377;29;20135;-65
2021/12/27 02:18:10;;;;;;;4.57;3.17;;;;;;;-11.58;65.73;98785.53;4845532;29;20455;-65
2021/12/27 02:20:37;;;;;;;7.05;4.50;;;;;;;-11.65;65.89;98789.81;4862284;29;20041;-64
2021/12/27 02:23:07;;;;;;;8.95;4.05;;;;;;;-11.72;66.59;98793.19;4862782;29;20045;-71
2021/12/27 02:25:34;;;;;;;5.03;3.15;;;;;;;-11.62;66.43;98791.53;4846942;29;20045;-72
2021/12/27 02:28:01;;;;;;;7.28;3.92;;;;;;;-11.76;67.11;98800.09;4863703;29;20052;-70
2021/12/27 02:30:26;;;;;;;6.45;4.10;;;;;;;-11.59;66.71;98796.66;4863011;29;20407;-69
2021/12/27 02:32:53;;;;;;;10.15;3.58;;;;;;;-11.45;66.59;98803.56;4863316;29;20048;-70
2021/12/27 02:35:21;;;;;;;7.43;4.18;;;;;;;-11.51;66.48;98792.44;4862340;29;20121;-68
2021/12/27 02:37:46;;;;;;;5.15;3.50;;;;;;;-11.55;66.67;98801.84;4845670;29;20045;-69
2021/12/27 02:40:11;;;;;;;7.35;3.53;;;;;;;-11.45;66.75;98806.16;4862405;29;20047;-69
2021/12/27 02:42:52;;;;;;;8.40;3.88;;;;;;;-11.38;66.62;98805.28;4862425;29;20044;-68
2021/12/27 02:45:17;;;;;;;6.88;3.65;;;;;;;-11.41;66.63;98801.88;4862773;29;20069;-68
2021/12/27 02:47:42;;;;;;;6.22;3.10;;;;;;;-11.43;66.88;98809.59;4862556;29;20075;-67
2021/12/27 02:50:07;;;;;;;7.35;4.15;;;;;;;-11.40;66.58;98808.75;4862274;29;20055;-67
2021/12/27 02:52:31;;;;;;;5.55;3.45;;;;;;;-11.32;66.42;98822.47;4862456;29;20048;-65
2021/12/27 02:54:56;;;;;;;5.63;3.60;;;;;;;-11.29;66.47;98834.50;4862251;29;20055;-64
2021/12/27 02:57:21;;;;;;;4.47;3.15;;;;;;;-11.28;66.76;98823.31;4845435;29;20444;-65
2021/12/27 02:59:45;;;;;;;11.43;4.85;;;;;;;-11.37;66.84;98840.44;4845160;29;20108;-65
2021/12/27 03:02:10;;;;;;;6.32;3.40;;;;;;;-11.15;66.32;98840.50;4862024;29;20049;-64
2021/12/27 03:04:36;;;;;;;4.63;3.20;;;;;;;-11.09;66.39;98833.66;4844902;29;20045;-65
2021/12/27 03:07:00;;;;;;;5.53;3.00;;;;;;;-11.13;66.19;98833.63;4861908;29;20214;-64
2021/12/27 03:09:27;;;;;;;6.20;3.97;;;;;;;-11.30;65.88;98820.75;4861867;29;20182;-64
2021/12/27 03:11:53;;;;;;;10.57;5.63;;;;;;;-11.28;66.29;98842.19;4861677;29;20048;-64
2021/12/27 03:14:20;;;;;;;5.35;3.17;;;;;;;-11.31;67.10;98849.06;4861931;29;20037;-64
2021/12/27 03:16:45;;;;;;;7.07;4.60;;;;;;;-11.39;67.01;98854.16;4845212;29;20065;-66
2021/12/27 03:19:10;;;;;;;6.55;4.03;;;;;;;-11.30;66.93;98833.63;4862064;29;20105;-64
2021/12/27 03:21:34;;;;;;;9.20;4.70;;;;;;;-11.29;66.39;98847.34;4862368;29;20460;-63
2021/12/27 03:23:59;;;;;;;5.68;3.13;;;;;;;-11.14;66.59;98858.50;4829438;29;20135;-68
2021/12/27 03:26:24;;;;;;;6.93;3.65;;;;;;;-11.08;66.08;98857.69;4859463;29;20135;-66
2021/12/27 03:28:49;;;;;;;7.88;3.70;;;;;;;-11.06;66.30;98861.13;4844583;29;20040;-67
2021/12/27 03:31:15;;;;;;;6.63;3.83;;;;;;;-11.10;66.33;98873.13;4844701;29;20059;-66
2021/12/27 03:33:40;;;;;;;8.93;4.55;;;;;;;-11.10;66.22;98865.41;4860639;29;20563;-67
2021/12/27 03:36:07;;;;;;;11.10;4.90;;;;;;;-11.11;66.40;98873.97;4861112;29;20480;-67
2021/12/27 03:38:36;;;;;;;4.68;2.67;;;;;;;-11.02;66.24;98878.25;4844203;29;20044;-66
2021/12/27 03:41:04;;;;;;;7.90;4.82;;;;;;;-10.99;66.54;98887.72;4860206;29;20496;-65
2021/12/27 11:41:02;;;;;;;8.30;5.18;;;;;;;-8.69;61.49;99232.41;5118538;23;20092;-71
2021/12/27 11:44:06;;;;;;;8.70;5.28;;;;;;;-8.73;61.04;99225.53;4861143;29;20048;-70
2021/12/27 11:46:51;;;;;;;12.23;5.78;;;;;;;-8.75;61.62;99232.44;4843863;29;20064;-71
2021/12/27 11:49:32;;;;;;;8.77;5.30;;;;;;;-8.75;61.78;99229.84;4861181;29;20404;-72
2021/12/27 11:52:14;;;;;;;6.65;3.92;;;;;;;-8.60;61.69;99232.41;4844252;29;20052;-72
2021/12/27 11:54:56;;;;;;;4.65;3.63;;;;;;;-8.62;61.15;99238.44;4860937;29;20092;-74
2021/12/27 11:57:39;;;;;;;6.95;3.90;;;;;;;-8.58;61.26;99246.19;4861299;29;20056;-72
2021/12/27 12:00:17;;;;;;;9.67;5.93;;;;;;;-8.57;61.14;99237.56;4860916;29;20141;-72
2021/12/27 12:02:43;;;;;;;4.80;3.30;;;;;;;-8.59;60.51;99230.69;4861027;29;20070;-71
2021/12/27 12:05:07;;;;;;;7.72;4.95;;;;;;;-8.73;61.55;99238.47;4844006;29;20064;-72
2021/12/27 12:07:32;;;;;;;7.85;3.58;;;;;;;-8.72;61.10;99245.34;4860775;29;20048;-73
2021/12/27 12:09:58;;;;;;;6.30;3.47;;;;;;;-8.73;61.12;99245.34;4844410;29;20052;-72
2021/12/27 12:12:22;;;;;;;9.93;5.10;;;;;;;-8.80;62.41;99250.50;4861437;29;20036;-73
2021/12/27 12:14:53;;;;;;;8.50;4.75;;;;;;;-8.75;62.54;99271.19;4844462;29;20060;-76
2021/12/27 12:17:36;;;;;;;8.35;5.10;;;;;;;-8.82;62.87;99254.84;4853106;29;20134;-72
2021/12/27 12:20:01;;;;;;;8.32;4.78;;;;;;;-8.81;62.51;99269.47;4854263;29;20057;-72
2021/12/27 12:22:34;;;;;;;6.10;4.35;;;;;;;-8.77;62.42;99264.28;4856952;29;20107;-76
2021/12/27 12:25:22;;;;;;;5.35;3.42;;;;;;;-8.73;62.53;99266.88;4835996;29;20128;-76
2021/12/27 12:27:51;;;;;;;9.30;4.60;;;;;;;-8.71;62.87;99266.88;4855678;29;20037;-76
2021/12/27 12:30:17;;;;;;;7.03;4.55;;;;;;;-8.77;63.04;99264.28;4850652;29;20055;-75
2021/12/27 12:32:56;;;;;;;11.07;4.88;;;;;;;-8.81;64.40;99268.63;4836480;29;20048;-74
2021/12/27 12:35:32;;;;;;;10.57;4.88;;;;;;;-8.90;64.50;99263.41;4828961;29;20128;-73
2021/12/27 12:38:13;;;;;;;10.60;4.97;;;;;;;-8.88;64.62;99262.56;4862196;29;20056;-72
2021/12/27 12:40:39;;;;;;;7.97;4.53;;;;;;;-8.92;64.86;99276.38;4847607;29;20060;-74
2021/12/27 12:43:04;;;;;;;12.35;4.95;;;;;;;-8.94;65.20;99274.63;4847777;29;20139;-73
2021/12/27 12:45:30;;;;;;;10.65;5.15;;;;;;;-9.23;66.05;99284.91;4864395;29;20139;-70
2021/12/27 12:47:55;;;;;;;12.02;4.93;;;;;;;-9.12;66.84;99284.94;4864774;29;20044;-70
2021/12/27 12:50:22;;;;;;;9.25;5.20;;;;;;;-9.12;66.99;99292.66;4860034;29;20047;-69
2021/12/27 12:52:50;;;;;;;11.30;5.28;;;;;;;-9.11;67.99;99286.66;4858020;29;20048;-68
2021/12/27 12:55:24;;;;;;;8.85;4.72;;;;;;;-9.07;67.26;99290.97;4863771;29;20119;-67
2021/12/27 12:57:50;;;;;;;7.03;4.72;;;;;;;-9.11;68.21;99286.66;4864919;29;20048;-77
2021/12/27 13:00:24;;;;;;;8.13;4.40;;;;;;;-9.03;66.67;99274.63;4847929;29;20526;-70
2021/12/27 13:02:49;;;;;;;9.07;4.82;;;;;;;-8.97;66.47;99285.81;4864501;29;20045;-71
2021/12/27 13:05:16;;;;;;;7.22;4.00;;;;;;;-9.05;66.48;99273.75;4852429;29;20809;-72
2021/12/27 13:07:45;;;;;;;7.53;3.90;;;;;;;-9.13;67.25;99275.44;4845953;29;20048;-71
2021/12/27 13:10:36;;;;;;;5.53;3.83;;;;;;;-9.14;67.51;99279.75;4848155;29;20056;-67
2021/12/27 13:13:14;;;;;;;10.77;6.05;;;;;;;-9.26;68.17;99295.25;4845745;29;20057;-69
2021/12/27 13:15:48;;;;;;;9.40;6.18;;;;;;;-9.14;67.50;99307.31;4845749;29;20602;-74
2021/12/27 13:18:17;;;;;;;11.15;4.85;;;;;;;-9.21;68.59;99304.72;4845823;29;20385;-71
2021/12/27 13:20:46;;;;;;;14.05;5.05;;;;;;;-9.17;67.89;99301.28;4846518;29;20472;-70
2021/12/27 13:23:14;;;;;;;10.20;5.32;;;;;;;-9.03;67.32;99310.78;4829028;29;20052;-71
2021/12/27 13:25:51;;;;;;;9.18;5.32;;;;;;;-8.96;68.05;99321.13;4828556;29;20049;-72
2021/12/27 13:28:24;;;;;;;11.02;5.05;;;;;;;-8.97;68.44;99315.94;4845383;29;20456;-71
2021/12/27 13:30:56;;;;;;;10.85;6.35;;;;;;;-9.08;67.79;99312.47;4812924;29;20076;-71
2021/12/27 13:33:27;;;;;;;10.05;5.75;;;;;;;-9.01;67.97;99312.47;4845906;29;20053;-72
2021/12/27 13:35:53;;;;;;;9.13;5.47;;;;;;;-8.99;68.13;99318.50;4844994;29;20432;-72
2021/12/27 13:38:21;;;;;;;12.98;6.03;;;;;;;-9.04;67.90;99316.81;4844643;29;20457;-72
2021/12/27 13:40:50;;;;;;;10.95;4.95;;;;;;;-8.94;68.35;99321.97;4828010;29;20534;-72
2021/12/27 13:43:16;;;;;;;14.65;6.20;;;;;;;-8.89;67.38;99332.28;4828153;29;20080;-72
2021/12/27 13:45:42;;;;;;;8.50;4.97;;;;;;;-8.80;68.30;99342.63;4844705;29;20052;-72
2021/12/27 13:48:09;;;;;;;12.52;5.00;;;;;;;-8.79;67.48;99336.59;4844696;29;20508;-72
2021/12/27 13:50:36;;;;;;;9.98;4.68;;;;;;;-8.71;67.37;99340.09;4843270;29;20057;-72
2021/12/27 13:53:08;;;;;;;14.88;6.25;;;;;;;-8.71;66.85;99349.56;4827871;29;20512;-72
2021/12/27 13:55:33;;;;;;;19.05;7.47;;;;;;;-8.76;68.31;99349.53;4844525;29;20049;-72
2021/12/27 13:58:14;;;;;;;12.77;6.38;;;;;;;-8.74;68.17;99357.28;4847174;29;20040;-71
2021/12/27 14:00:39;;;;;;;14.80;5.78;;;;;;;-8.65;67.94;99358.16;4848033;29;20052;-71
2021/12/27 14:03:04;;;;;;;8.32;5.35;;;;;;;-8.60;67.56;99359.03;4829554;29;20047;-72
2021/12/27 14:05:32;;;;;;;8.63;5.15;;;;;;;-8.62;68.24;99352.13;4845973;29;20045;-71
2021/12/27 14:08:11;;;;;;;15.18;6.47;;;;;;;-8.71;68.25;99357.31;4844392;29;20508;-72
2021/12/27 14:10:39;;;;;;;8.55;4.63;;;;;;;-8.60;68.33;99342.66;4844474;29;20085;-70
2021/12/27 14:13:04;;;;;;;12.63;5.63;;;;;;;-8.67;67.86;99357.28;4827394;29;20447;-72
2021/12/27 14:15:31;;;;;;;8.70;5.40;;;;;;;-8.60;67.50;99355.59;4845188;29;20047;-71
2021/12/27 14:18:09;;;;;;;12.45;6.88;;;;;;;-8.69;69.03;99364.16;4827512;29;20049;-71
2021/12/27 14:20:35;;;;;;;8.77;5.05;;;;;;;-8.71;68.73;99363.34;4844085;29;20056;-71
2021/12/27 14:23:10;;;;;;;12.68;6.32;;;;;;;-8.56;68.70;99365.03;4844211;29;20049;-71
2021/12/27 14:25:35;;;;;;;11.45;6.07;;;;;;;-8.66;68.59;99371.06;4844491;29;20049;-71
2021/12/27 14:28:00;;;;;;;16.02;6.55;;;;;;;-8.56;67.87;99373.66;4844491;29;20044;-71
2021/12/27 14:30:29;;;;;;;9.57;5.30;;;;;;;-8.42;67.84;99376.25;4844466;29;20048;-71
2021/12/27 14:32:55;;;;;;;15.90;6.07;;;;;;;-8.36;67.60;99383.16;4828579;29;20500;-72
2021/12/27 14:35:32;;;;;;;11.40;7.03;;;;;;;-8.56;69.14;99381.41;4828735;29;20053;-73
2021/12/27 14:38:18;;;;;;;11.90;5.85;;;;;;;-8.39;67.63;99376.25;4829715;29;20570;-71
2021/12/27 14:40:55;;;;;;;11.23;6.13;;;;;;;-8.49;68.64;99372.81;4812067;29;20515;-70
2021/12/27 14:43:21;;;;;;;10.80;6.80;;;;;;;-8.33;68.62;99375.38;4827477;29;20051;-71
2021/12/27 14:45:47;;;;;;;12.65;6.47;;;;;;;-8.38;68.77;99390.91;4828102;29;20478;-71
2021/12/27 14:48:13;;;;;;;10.20;5.75;;;;;;;-8.20;67.62;99395.16;4828764;29;20044;-72
2021/12/27 14:50:40;;;;;;;11.43;5.45;;;;;;;-8.12;68.14;99396.88;4828059;29;20045;-72
2021/12/27 14:53:06;;;;;;;10.15;5.55;;;;;;;-7.99;67.04;99389.97;4845096;29;20072;-72
2021/12/27 14:55:31;;;;;;;10.52;5.40;;;;;;;-8.09;68.27;99393.44;4796720;29;20095;-71
2021/12/27 14:57:56;;;;;;;11.45;6.50;;;;;;;-8.11;68.11;99397.75;4844099;29;20084;-69
2021/12/27 15:00:30;;;;;;;12.65;6.32;;;;;;;-8.19;68.44;99390.00;4844187;29;20041;-74
2021/12/27 15:02:55;;;;;;;9.82;6.13;;;;;;;-8.24;67.95;99396.06;4843181;29;20053;-73
2021/12/27 15:05:20;;;;;;;8.35;5.00;;;;;;;-8.11;68.64;99413.25;4811694;29;20511;-71
2021/12/27 15:07:45;;;;;;;11.18;5.93;;;;;;;-8.07;68.70;99399.47;4843517;29;20103;-72
2021/12/27 15:10:11;;;;;;;12.27;6.18;;;;;;;-8.11;68.53;99395.16;4844102;29;20052;-77
2021/12/27 15:12:36;;;;;;;9.32;4.85;;;;;;;-8.02;68.66;99396.91;4827437;29;20045;-72
2021/12/27 15:15:03;;;;;;;12.52;5.70;;;;;;;-7.97;67.68;99405.50;4811463;29;20416;-71
2021/12/27 15:17:29;;;;;;;12.02;5.28;;;;;;;-7.93;68.23;99410.66;4827101;29;20048;-72
2021/12/27 15:19:54;;;;;;;11.70;5.50;;;;;;;-7.88;67.43;99405.47;4843776;29;20041;-73
2021/12/27 15:22:20;;;;;;;11.68;6.18;;;;;;;-7.95;67.37;99402.06;4842983;29;20092;-73
2021/12/27 15:24:45;;;;;;;10.88;6.20;;;;;;;-7.96;67.76;99405.50;4843044;29;20104;-73
2021/12/27 15:27:11;;;;;;;11.23;6.50;;;;;;;-8.01;68.48;99408.97;4843232;29;20048;-72
2021/12/27 15:29:37;;;;;;;4.30;2.67;;;;;;;-7.85;67.71;99406.34;4822193;29;20561;-68
2021/12/27 15:32:02;;;;;;;11.85;6.13;;;;;;;-7.97;68.80;99406.34;4844265;29;20068;-67
2021/12/27 15:34:27;;;;;;;12.73;6.50;;;;;;;-7.93;68.92;99402.91;4844623;29;20080;-69
2021/12/27 15:36:53;;;;;;;9.80;5.40;;;;;;;-8.01;68.98;99412.38;4861507;29;20075;-69
2021/12/27 15:39:18;;;;;;;10.48;6.63;;;;;;;-8.15;69.25;99422.75;4861526;29;20048;-67
2021/12/27 15:41:55;;;;;;;9.43;5.57;;;;;;;-7.98;69.03;99429.63;4826034;29;20500;-66
2021/12/27 15:44:22;;;;;;;11.85;6.43;;;;;;;-7.98;68.35;99434.81;4842853;29;20554;-70
2021/12/27 15:46:47;;;;;;;9.68;5.82;;;;;;;-8.07;68.55;99435.69;4843006;29;20411;-69
2021/12/27 15:49:14;;;;;;;10.50;5.63;;;;;;;-7.95;68.34;99434.81;4825942;29;20120;-69
2021/12/27 15:51:40;;;;;;;13.88;5.80;;;;;;;-7.92;68.95;99440.84;4842334;29;20242;-71
2021/12/27 15:54:05;;;;;;;9.23;5.53;;;;;;;-7.95;68.98;99440.84;4844263;29;20051;-70
2021/12/27 15:56:31;;;;;;;11.02;5.45;;;;;;;-7.84;68.88;99444.28;4846197;29;20052;-73
2021/12/27 15:58:56;;;;;;;11.00;5.78;;;;;;;-7.86;68.69;99440.84;4851985;29;20044;-70
2021/12/27 16:01:21;;;;;;;12.00;6.88;;;;;;;-7.99;67.94;99443.44;4827443;29;20052;-71
2021/12/27 16:03:46;;;;;;;11.60;6.38;;;;;;;-8.03;68.87;99441.72;4850371;29;20099;-68
2021/12/27 16:06:11;;;;;;;11.63;6.38;;;;;;;-8.15;69.82;99442.59;4825737;29;20049;-68
2021/12/27 16:08:36;;;;;;;13.05;6.25;;;;;;;-8.04;69.15;99455.50;4841065;29;20084;-67
2021/12/27 16:11:03;;;;;;;14.15;6.82;;;;;;;-8.12;69.41;99455.50;4826260;29;20056;-68
2021/12/27 16:13:35;;;;;;;12.82;7.55;;;;;;;-8.04;70.03;99464.13;4841519;29;20469;-70
2021/12/27 16:16:04;;;;;;;12.68;5.72;;;;;;;-7.93;69.61;99467.59;4841259;29;20408;-77
2021/12/27 16:18:33;;;;;;;10.55;6.10;;;;;;;-7.94;69.78;99467.59;4842803;29;20068;-69
2021/12/27 16:20:59;;;;;;;10.70;6.13;;;;;;;-7.86;69.48;99476.19;4841210;29;20178;-69
2021/12/27 16:23:24;;;;;;;10.38;5.47;;;;;;;-7.81;69.50;99480.50;4842444;29;20048;-68
2021/12/27 16:25:49;;;;;;;9.88;6.22;;;;;;;-7.81;69.89;99477.94;4841186;29;20045;-67
2021/12/27 16:28:16;;;;;;;11.25;6.65;;;;;;;-7.79;69.29;99483.09;4842897;29;20052;-69
2021/12/27 16:30:42;;;;;;;14.23;7.00;;;;;;;-7.84;69.70;99501.22;4842332;29;20045;-67
2021/12/27 16:33:08;;;;;;;9.90;5.63;;;;;;;-7.88;68.78;99496.03;4842756;29;20053;-68
2021/12/27 16:35:33;;;;;;;13.43;5.75;;;;;;;-7.82;69.05;99489.13;4842572;29;20037;-75
2021/12/27 16:37:58;;;;;;;8.70;5.20;;;;;;;-7.74;69.54;99500.34;4841253;29;20112;-69
2021/12/27 16:40:23;;;;;;;11.68;6.38;;;;;;;-7.82;69.43;99496.91;4844009;29;20056;-67
2021/12/27 16:42:49;;;;;;;14.15;8.20;;;;;;;-7.97;69.31;99504.66;4861598;29;20078;-67
2021/12/27 16:45:14;;;;;;;15.13;7.18;;;;;;;-7.88;69.96;99508.97;4861151;29;20044;-73
2021/12/27 16:47:40;;;;;;;9.52;5.72;;;;;;;-7.78;70.02;99513.25;4861233;29;20052;-72
2021/12/27 16:50:07;;;;;;;11.88;6.47;;;;;;;-7.81;70.58;99508.97;4829069;29;20472;-76
2021/12/27 16:52:34;;;;;;;10.77;6.38;;;;;;;-7.88;70.05;99508.97;4860637;29;20076;-76
2021/12/27 16:54:59;;;;;;;12.80;6.22;;;;;;;-7.86;69.80;99513.28;4861446;29;20063;-73
2021/12/27 16:57:25;;;;;;;15.77;6.68;;;;;;;-7.83;69.77;99510.69;4843838;29;20052;-70
2021/12/27 16:59:50;;;;;;;12.38;6.88;;;;;;;-7.88;70.25;99519.31;4860630;29;20044;-76
2021/12/27 17:02:15;;;;;;;12.95;5.80;;;;;;;-7.81;70.09;99521.91;4861141;29;20055;-73
2021/12/27 17:04:41;;;;;;;10.35;5.60;;;;;;;-7.72;70.92;99516.72;4843300;29;20056;-74
2021/12/27 17:07:06;;;;;;;12.77;6.80;;;;;;;-7.72;70.26;99506.38;4843778;29;20052;-73
2021/12/27 17:09:31;;;;;;;17.15;8.52;;;;;;;-7.82;70.99;99508.97;4860814;29;20049;-73
2021/12/27 17:11:56;;;;;;;10.30;5.53;;;;;;;-7.80;71.54;99507.25;4860390;29;20044;-75
2021/12/27 17:14:22;;;;;;;11.88;6.20;;;;;;;-7.78;70.92;99503.78;4860716;29;20048;-69
2021/12/27 17:16:47;;;;;;;11.35;6.00;;;;;;;-7.76;71.30;99511.53;4843821;29;20130;-66
2021/12/27 17:19:12;;;;;;;13.00;7.38;;;;;;;-7.81;71.57;99516.75;4843680;29;20033;-76
2021/12/27 17:21:37;;;;;;;14.45;6.82;;;;;;;-7.70;71.58;99520.19;4860984;29;20091;-67
2021/12/27 17:24:03;;;;;;;13.52;6.68;;;;;;;-7.73;71.50;99529.66;4859021;29;20056;-71
2021/12/27 17:26:27;;;;;;;17.02;5.85;;;;;;;-7.62;71.17;99532.25;4837516;29;20447;-74
2021/12/27 17:28:55;;;;;;;14.73;5.88;;;;;;;-7.66;70.80;99536.56;4853409;29;20507;-71
2021/12/27 17:31:23;;;;;;;13.07;6.15;;;;;;;-7.62;71.26;99537.44;4804826;29;20077;-73
2021/12/27 17:33:50;;;;;;;9.90;5.00;;;;;;;-7.55;70.55;99539.13;4840635;29;20729;-74
2021/12/27 17:36:15;;;;;;;13.63;7.03;;;;;;;-7.57;71.01;99535.72;4853490;29;20068;-73
2021/12/27 17:38:41;;;;;;;10.02;6.07;;;;;;;-7.53;69.99;99542.59;4855866;29;20139;-73
2021/12/27 17:41:07;;;;;;;9.43;5.40;;;;;;;-7.54;70.26;99541.72;4853121;29;20428;-75
2021/12/27 17:43:32;;;;;;;9.85;5.65;;;;;;;-7.52;70.30;99545.19;4856835;29;20491;-69
2021/12/27 17:45:57;;;;;;;14.02;7.70;;;;;;;-7.60;70.83;99544.34;4854369;29;20572;-75
2021/12/27 17:48:23;;;;;;;14.90;6.57;;;;;;;-7.67;71.42;99545.19;4853297;29;20741;-69
2021/12/27 17:50:50;;;;;;;15.38;6.95;;;;;;;-7.58;70.97;99542.63;4854777;29;20131;-76
2021/12/27 17:53:16;;;;;;;9.80;5.22;;;;;;;-7.52;70.15;99549.50;4836781;29;20188;-74
2021/12/27 17:55:40;;;;;;;8.77;5.63;;;;;;;-7.50;70.13;99543.47;4829029;29;20057;-74
2021/12/27 17:58:05;;;;;;;9.07;5.53;;;;;;;-7.50;71.07;99540.00;4828952;29;20049;-74
2021/12/27 18:00:32;;;;;;;12.43;6.13;;;;;;;-7.56;70.89;99548.63;4845303;29;20061;-73
2021/12/27 18:02:58;;;;;;;11.00;5.22;;;;;;;-7.52;70.97;99555.53;4828596;29;20131;-71
2021/12/27 18:05:24;;;;;;;9.65;5.82;;;;;;;-7.52;70.30;99544.31;4828637;29;20059;-70
2021/12/27 18:07:50;;;;;;;9.02;5.72;;;;;;;-7.48;70.70;99562.44;4828337;29;20052;-73
2021/12/27 18:10:16;;;;;;;10.75;5.65;;;;;;;-7.50;69.79;99559.00;4844928;29;20571;-76
2021/12/27 18:12:41;;;;;;;12.18;5.97;;;;;;;-7.61;70.88;99559.88;4844950;29;20084;-76
2021/12/27 18:15:09;;;;;;;11.45;6.32;;;;;;;-7.68;71.11;99560.75;4845806;29;20083;-74
2021/12/27 18:17:37;;;;;;;10.98;5.22;;;;;;;-7.63;71.08;99564.16;4828273;29;20101;-73
2021/12/27 18:20:04;;;;;;;10.85;6.25;;;;;;;-7.74;71.56;99567.63;4827519;29;20076;-73
2021/12/27 18:22:32;;;;;;;11.30;7.03;;;;;;;-7.83;71.14;99575.38;4829546;29;20041;-74
2021/12/27 18:24:57;;;;;;;9.15;5.13;;;;;;;-7.83;71.03;99574.53;4847114;29;20114;-74
2021/12/27 18:27:23;;;;;;;11.50;7.05;;;;;;;-7.85;71.02;99571.94;4846766;29;20044;-73
2021/12/27 18:29:47;;;;;;;10.60;5.65;;;;;;;-7.95;72.35;99569.31;4828991;29;20500;-71
2021/12/27 18:32:14;;;;;;;13.05;6.55;;;;;;;-7.97;72.61;99579.66;4844666;29;20539;-68
2021/12/27 18:34:40;;;;;;;8.85;6.07;;;;;;;-8.00;72.74;99578.78;4844949;29;20052;-71
2021/12/27 18:37:05;;;;;;;12.40;6.03;;;;;;;-7.96;72.32;99589.16;4828164;29;20100;-73
2021/12/27 18:39:31;;;;;;;8.55;5.45;;;;;;;-7.93;72.20;99589.16;4845470;29;20080;-70
2021/12/27 18:41:59;;;;;;;7.63;4.80;;;;;;;-7.90;73.02;99591.75;4848224;29;20060;-70
2021/12/27 18:44:25;;;;;;;12.73;5.95;;;;;;;-7.87;73.12;99589.16;4848939;29;20052;-71
2021/12/27 18:46:52;;;;;;;8.23;4.78;;;;;;;-7.81;72.41;99583.16;4862557;29;20400;-72
2021/12/27 18:49:18;;;;;;;11.60;5.68;;;;;;;-7.85;72.59;99590.03;4857943;29;20049;-75
2021/12/27 18:51:45;;;;;;;10.30;6.10;;;;;;;-7.86;72.96;99590.91;4838251;29;20044;-75
2021/12/27 18:54:10;;;;;;;9.05;5.32;;;;;;;-7.77;72.61;99596.06;4856973;29;20044;-72
2021/12/27 18:56:36;;;;;;;9.55;5.47;;;;;;;-7.73;72.09;99599.53;4855111;29;20036;-70
2021/12/27 18:59:02;;;;;;;12.13;6.22;;;;;;;-7.75;71.87;99599.53;4857710;29;20048;-80
2021/12/27 19:01:27;;;;;;;11.75;5.25;;;;;;;-7.66;72.29;99603.84;4838461;29;20037;-74
2021/12/27 19:03:52;;;;;;;9.35;5.00;;;;;;;-7.67;71.60;99609.06;4835861;29;20047;-71
2021/12/27 19:06:19;;;;;;;8.43;4.97;;;;;;;-7.58;71.96;99606.47;4853224;29;20181;-71
2021/12/27 19:08:47;;;;;;;9.93;4.50;;;;;;;-7.52;70.83;99612.50;4835393;29;20534;-70
2021/12/27 19:11:15;;;;;;;9.40;5.03;;;;;;;-7.52;71.21;99622.84;4854454;29;20052;-71
2021/12/27 19:13:39;;;;;;;11.88;6.22;;;;;;;-7.51;71.25;99629.75;4850979;29;20480;-73
2021/12/27 19:16:04;;;;;;;7.40;4.70;;;;;;;-7.49;71.31;99625.44;4818625;29;20677;-72
2021/12/27 19:18:29;;;;;;;9.45;4.50;;;;;;;-7.40;71.53;99628.03;4852735;29;20044;-75
2021/12/27 19:20:55;;;;;;;10.68;4.90;;;;;;;-7.39;70.83;99623.72;4852120;29;20067;-71
2021/12/27 19:23:20;;;;;;;10.45;5.70;;;;;;;-7.40;71.25;99627.16;4831694;29;20423;-76
2021/12/27 19:25:45;;;;;;;11.88;5.20;;;;;;;-7.39;70.36;99641.84;4813353;29;20412;-73